Time;durP1;ratioP1;P1;durP2;ratioP2;P2;SDS_P1;SDS_P2;PMS_P1;PMS_P2;Temp;Humidity;BMP_temperature;BMP_pressure;BME280_temperature;BME280_humidity;BME280_pressure;Samples;Min_cycle;Max_cycle;Signal;HPM_P1;HPM_P2
2024/04/07 00:00:23;;;;;;;5.47;2.27;;;;;;;22.80;29.74;97241.66;5036033;28;20883;-71
2024/04/07 00:02:50;;;;;;;3.10;2.00;;;;;;;22.79;29.66;97240.03;5034071;28;20238;-70
2024/04/07 00:05:16;;;;;;;4.03;2.10;;;;;;;22.67;29.95;97243.50;5045641;28;20179;-70
2024/04/07 00:07:41;;;;;;;2.83;2.10;;;;;;;22.76;29.85;97235.16;5034243;28;20426;-70
2024/04/07 00:10:06;;;;;;;6.10;2.40;;;;;;;22.72;30.09;97229.47;5030995;28;20234;-71
2024/04/07 00:12:32;;;;;;;3.07;2.23;;;;;;;22.68;29.80;97229.09;5033423;28;20346;-71
2024/04/07 00:14:57;;;;;;;3.40;2.30;;;;;;;22.59;29.99;97221.66;5029961;28;20190;-71
2024/04/07 00:17:24;;;;;;;6.57;2.40;;;;;;;22.51;30.26;97222.78;5040528;28;20217;-70
2024/04/07 00:19:49;;;;;;;2.60;1.80;;;;;;;22.45;29.98;97231.72;5040329;28;20230;-70
2024/04/07 00:22:15;;;;;;;5.63;2.00;;;;;;;22.42;30.09;97219.66;5042402;28;20430;-71
2024/04/07 00:24:40;;;;;;;2.03;1.83;;;;;;;22.51;30.09;97220.94;5036416;28;20541;-70
2024/04/07 00:27:06;;;;;;;2.33;1.87;;;;;;;22.47;30.02;97214.44;5033234;28;20705;-70
2024/04/07 00:29:31;;;;;;;3.23;2.00;;;;;;;22.50;29.82;97211.31;5045070;28;20595;-71
2024/04/07 00:31:56;;;;;;;4.10;2.10;;;;;;;22.50;29.88;97208.66;5029740;28;20289;-70
2024/04/07 00:34:22;;;;;;;4.20;2.20;;;;;;;22.42;30.31;97203.66;5033033;28;20184;-70
2024/04/07 00:36:47;;;;;;;8.97;2.10;;;;;;;22.40;30.49;97217.16;5039917;28;20266;-70
2024/04/07 00:39:13;;;;;;;4.80;1.87;;;;;;;22.30;30.25;97216.13;5030650;28;20192;-71
2024/04/07 00:41:38;;;;;;;6.40;1.90;;;;;;;22.36;30.44;97218.69;5031315;28;20286;-71
2024/04/07 00:44:04;;;;;;;3.37;2.10;;;;;;;22.33;30.52;97215.63;5024728;28;20207;-71
2024/04/07 00:46:30;;;;;;;5.03;2.30;;;;;;;22.25;30.85;97220.28;5034922;28;20833;-71
2024/04/07 00:48:55;;;;;;;6.90;2.40;;;;;;;22.25;30.75;97208.75;5035878;28;20414;-71
2024/04/07 00:51:21;;;;;;;2.67;2.10;;;;;;;22.20;30.57;97206.78;5034361;28;20208;-71
2024/04/07 00:53:47;;;;;;;2.17;1.87;;;;;;;22.19;30.77;97207.03;5047681;28;20201;-71
2024/04/07 00:56:13;;;;;;;6.17;2.40;;;;;;;22.20;30.85;97205.97;5040775;28;20422;-71
2024/04/07 00:58:38;;;;;;;2.43;1.60;;;;;;;22.15;30.46;97208.50;5041878;28;20214;-71
2024/04/07 01:01:04;;;;;;;3.60;2.10;;;;;;;22.12;30.39;97201.78;5035850;28;20286;-70
2024/04/07 01:03:30;;;;;;;3.40;2.07;;;;;;;22.12;31.00;97196.44;5043650;28;20562;-71
2024/04/07 01:05:55;;;;;;;3.40;2.50;;;;;;;22.05;30.52;97196.53;5038601;28;20682;-69
2024/04/07 01:08:21;;;;;;;2.87;1.87;;;;;;;22.08;30.87;97198.75;5039779;28;20188;-70
2024/04/07 01:10:50;;;;;;;3.23;1.80;;;;;;;22.05;31.04;97201.06;5035959;28;20306;-70
2024/04/07 01:13:16;;;;;;;4.47;1.87;;;;;;;22.11;30.41;97197.47;5037967;28;20226;-71
2024/04/07 01:15:41;;;;;;;3.07;2.00;;;;;;;22.06;30.71;97208.00;5040010;28;20824;-70
2024/04/07 01:18:07;;;;;;;5.30;1.90;;;;;;;22.01;30.74;97202.53;5041286;28;20258;-71
2024/04/07 01:20:33;;;;;;;3.50;1.70;;;;;;;22.02;30.90;97193.50;5032189;28;20250;-71
2024/04/07 01:23:01;;;;;;;2.43;1.90;;;;;;;21.98;30.95;97203.00;5035144;28;20286;-68
2024/04/07 01:25:26;;;;;;;2.10;1.90;;;;;;;22.00;31.12;97206.25;5029474;28;20484;-71
2024/04/07 01:27:56;;;;;;;4.20;1.80;;;;;;;21.92;31.20;97216.22;5032483;28;20935;-70
2024/04/07 01:30:23;;;;;;;2.60;1.80;;;;;;;21.97;30.92;97207.53;5028118;28;20211;-70
2024/04/07 01:32:48;;;;;;;2.83;1.70;;;;;;;21.96;30.99;97205.06;5043010;28;20469;-70
2024/04/07 01:35:14;;;;;;;2.00;1.73;;;;;;;21.92;31.05;97215.38;5040061;28;20946;-71
2024/04/07 01:37:39;;;;;;;2.90;1.80;;;;;;;21.85;30.67;97220.00;5037597;28;20640;-72
2024/04/07 01:40:08;;;;;;;2.33;2.00;;;;;;;21.86;30.64;97225.09;5035308;28;20208;-70
2024/04/07 01:42:34;;;;;;;1.80;1.70;;;;;;;21.89;30.85;97224.66;5028560;28;20271;-70
2024/04/07 01:45:00;;;;;;;3.10;1.83;;;;;;;21.99;31.65;97225.97;5037825;28;20484;-72
2024/04/07 01:47:25;;;;;;;2.00;1.83;;;;;;;21.99;31.53;97216.09;5028300;28;20938;-72
2024/04/07 01:49:51;;;;;;;6.30;1.70;;;;;;;21.97;31.78;97217.38;5037426;28;20179;-71
2024/04/07 01:52:17;;;;;;;6.20;1.63;;;;;;;21.99;31.00;97215.28;5039440;28;20206;-71
2024/04/07 01:54:43;;;;;;;2.93;1.53;;;;;;;22.01;30.15;97210.56;5037811;28;20187;-70
2024/04/07 01:57:09;;;;;;;3.70;1.73;;;;;;;22.08;29.81;97203.25;5045205;28;20434;-71
2024/04/07 01:59:34;;;;;;;1.73;1.50;;;;;;;22.14;30.05;97205.03;5030222;28;20477;-70
2024/04/07 02:02:00;;;;;;;2.00;1.60;;;;;;;22.18;29.27;97202.72;5035580;28;20199;-71
2024/04/07 02:04:28;;;;;;;3.83;1.40;;;;;;;22.27;29.30;97195.22;5039089;28;20628;-71
2024/04/07 02:06:53;;;;;;;1.67;1.53;;;;;;;22.35;28.80;97205.56;5032882;28;20218;-70
2024/04/07 02:09:20;;;;;;;2.67;1.30;;;;;;;22.40;28.37;97189.69;5029134;28;20422;-71
2024/04/07 02:11:46;;;;;;;4.27;1.23;;;;;;;22.49;28.68;97196.34;5033180;28;20309;-70
2024/04/07 02:14:12;;;;;;;1.37;1.27;;;;;;;22.57;28.57;97197.03;5043860;28;20432;-71
2024/04/07 02:16:37;;;;;;;2.67;1.63;;;;;;;22.64;28.25;97187.06;5040769;28;20428;-70
2024/04/07 02:19:03;;;;;;;5.27;1.50;;;;;;;22.67;28.43;97189.28;5044763;28;20250;-70
2024/04/07 02:21:28;;;;;;;1.63;1.50;;;;;;;22.70;28.39;97194.16;5031626;28;20230;-70
2024/04/07 02:23:54;;;;;;;2.43;1.43;;;;;;;22.80;28.63;97185.56;5038550;28;20210;-70
2024/04/07 02:26:20;;;;;;;8.77;1.70;;;;;;;22.72;28.60;97186.72;5017841;28;20327;-71
2024/04/07 02:28:45;;;;;;;2.07;1.47;;;;;;;22.78;28.67;97191.16;5046481;28;20186;-70
2024/04/07 02:31:11;;;;;;;1.73;1.20;;;;;;;22.83;28.54;97191.25;5037836;28;20246;-71
2024/04/07 02:33:38;;;;;;;2.07;1.47;;;;;;;22.83;28.84;97187.78;5020346;28;20197;-70
2024/04/07 02:36:03;;;;;;;2.13;1.33;;;;;;;22.91;28.99;97194.66;5033802;28;20513;-72
2024/04/07 02:38:28;;;;;;;3.43;1.60;;;;;;;;;;5034874;28;20809;-70
2024/04/07 02:40:54;;;;;;;1.83;1.20;;;;;;;22.92;28.85;97190.94;5040326;28;20199;-70
2024/04/07 02:43:19;;;;;;;5.83;1.50;;;;;;;22.98;29.01;97200.69;5044809;28;20215;-72
2024/04/07 02:48:29;;;;;;;2.03;1.20;;;;;;;23.02;29.10;97199.19;5042140;28;20286;-71
2024/04/07 02:50:56;;;;;;;9.23;1.57;;;;;;;23.07;29.23;97204.63;5045106;28;20579;-71
2024/04/07 02:53:22;;;;;;;6.90;1.50;;;;;;;23.08;29.21;97200.91;5051630;28;20228;-71
2024/04/07 02:55:47;;;;;;;3.03;1.60;;;;;;;23.10;29.16;97200.69;5039153;28;20422;-71
2024/04/07 02:58:13;;;;;;;2.60;1.40;;;;;;;23.16;29.30;97197.91;5039161;28;20198;-70
2024/04/07 03:00:38;;;;;;;4.50;1.80;;;;;;;23.20;29.13;97202.78;5053026;28;20215;-71
2024/04/07 03:03:04;;;;;;;2.40;1.17;;;;;;;23.17;29.29;97204.88;5042096;28;20683;-71
2024/04/07 03:05:29;;;;;;;2.43;1.40;;;;;;;23.28;29.09;97199.78;5023135;28;20728;-68
2024/04/07 03:07:55;;;;;;;2.20;1.50;;;;;;;23.22;29.16;97212.22;5029431;28;20247;-70
2024/04/07 03:10:20;;;;;;;2.03;1.70;;;;;;;23.33;29.16;97207.88;5037281;28;20225;-71
2024/04/07 03:12:46;;;;;;;1.60;1.20;;;;;;;23.35;29.38;97216.50;5049066;28;20329;-68
2024/04/07 03:15:11;;;;;;;1.67;1.40;;;;;;;23.37;29.70;97219.75;5029753;28;20187;-69
2024/04/07 03:17:37;;;;;;;1.77;1.40;;;;;;;23.37;29.74;97224.28;5046446;28;20176;-71
2024/04/07 03:20:03;;;;;;;1.80;1.30;;;;;;;23.37;29.77;97230.44;5027547;28;20825;-70
2024/04/07 03:22:29;;;;;;;2.67;1.50;;;;;;;23.35;29.98;97237.06;5039104;28;20207;-71
2024/04/07 03:24:54;;;;;;;2.23;1.57;;;;;;;23.35;29.91;97243.22;5034335;28;20422;-69
2024/04/07 03:27:20;;;;;;;1.67;1.20;;;;;;;23.34;30.08;97249.63;5042164;28;20263;-70
2024/04/07 03:29:46;;;;;;;2.70;1.57;;;;;;;23.28;30.14;97253.25;5035839;28;20211;-70
2024/04/07 03:32:11;;;;;;;2.13;1.40;;;;;;;23.31;30.00;97255.44;5026744;28;20207;-70
2024/04/07 03:34:37;;;;;;;1.50;1.30;;;;;;;23.32;30.56;97262.41;5040235;28;20668;-70
2024/04/07 03:37:04;;;;;;;1.40;1.30;;;;;;;23.28;30.40;97267.41;5038559;28;20198;-68
2024/04/07 03:39:30;;;;;;;2.73;1.57;;;;;;;23.27;30.91;97273.78;5029279;28;20211;-70
2024/04/07 03:41:56;;;;;;;1.67;1.57;;;;;;;23.16;30.59;97272.72;5030343;28;20519;-71
2024/04/07 03:44:21;;;;;;;1.57;1.40;;;;;;;23.13;30.79;97278.53;5038525;28;20812;-71
2024/04/07 03:46:48;;;;;;;3.27;1.37;;;;;;;23.19;30.67;97278.66;5032115;28;20228;-70
2024/04/07 03:49:14;;;;;;;4.03;1.63;;;;;;;23.21;30.93;97288.09;5039847;28;20232;-71
2024/04/07 03:51:39;;;;;;;1.50;1.40;;;;;;;23.22;31.00;97288.91;5042079;28;20448;-71
2024/04/07 03:54:04;;;;;;;3.43;1.60;;;;;;;23.21;30.99;97297.97;5041266;28;20183;-71
2024/04/07 03:56:30;;;;;;;2.23;1.40;;;;;;;23.14;31.20;97301.53;5035123;28;20191;-69
2024/04/07 03:58:56;;;;;;;5.30;2.00;;;;;;;23.11;31.16;97301.19;5029764;28;20303;-69
2024/04/07 04:01:22;;;;;;;3.20;1.50;;;;;;;23.12;31.33;97308.97;5038170;28;20203;-71
2024/04/07 04:03:47;;;;;;;4.03;1.50;;;;;;;23.10;31.33;97308.38;5038039;28;20548;-68
2024/04/07 04:06:13;;;;;;;2.10;1.53;;;;;;;23.06;31.57;97322.44;5048994;28;20239;-70
2024/04/07 04:08:38;;;;;;;4.23;1.70;;;;;;;23.01;31.62;97323.94;5041218;28;20194;-70
2024/04/07 04:11:07;;;;;;;4.03;1.70;;;;;;;23.02;31.59;97330.13;5038026;28;20211;-69
2024/04/07 04:13:36;;;;;;;2.23;1.60;;;;;;;22.96;31.94;97331.00;5025340;28;20191;-70
2024/04/07 04:16:01;;;;;;;2.60;1.70;;;;;;;22.92;32.05;97336.00;5043615;28;20460;-70
2024/04/07 04:18:27;;;;;;;2.33;1.40;;;;;;;22.90;31.98;97334.63;5037973;28;20974;-69
2024/04/07 04:20:53;;;;;;;1.63;1.40;;;;;;;22.78;32.29;97343.41;5034689;28;20235;-69
2024/04/07 04:23:18;;;;;;;2.07;1.70;;;;;;;22.76;32.60;97348.16;5026746;28;20270;-71
2024/04/07 04:25:54;;;;;;;2.90;1.67;;;;;;;22.68;32.87;97349.31;5037716;28;20629;-71
2024/04/07 04:28:21;;;;;;;6.00;1.80;;;;;;;22.71;32.63;97356.03;5030516;28;20190;-71
2024/04/07 04:30:53;;;;;;;2.27;1.77;;;;;;;22.72;32.91;97349.66;5028615;28;20534;-70
2024/04/07 04:33:20;;;;;;;2.53;1.77;;;;;;;22.70;33.46;97363.25;5041824;28;20448;-69
2024/04/07 04:35:45;;;;;;;4.40;2.00;;;;;;;22.64;33.24;97361.47;5026264;28;20413;-70
2024/04/07 04:38:11;;;;;;;2.97;1.63;;;;;;;22.45;33.92;97368.69;5030605;28;20878;-71
2024/04/07 04:40:36;;;;;;;2.47;1.60;;;;;;;22.42;34.36;97363.84;5030422;28;20297;-72
2024/04/07 04:43:03;;;;;;;2.60;1.63;;;;;;;22.25;34.71;97367.06;5031491;28;20237;-70
2024/04/07 04:45:28;;;;;;;1.80;1.63;;;;;;;22.27;34.95;97374.84;5034855;28;20290;-70
2024/04/07 04:47:54;;;;;;;2.10;1.90;;;;;;;22.27;35.26;97371.38;5034135;28;20931;-71
2024/04/07 04:50:19;;;;;;;6.63;1.23;;;;;;;22.16;35.46;97373.75;5035707;28;20178;-70
2024/04/07 04:52:45;;;;;;;3.80;1.87;;;;;;;22.13;35.61;97371.53;5038251;28;20758;-70
2024/04/07 04:55:10;;;;;;;2.33;1.80;;;;;;;22.02;36.12;97374.94;5041153;28;20195;-71
2024/04/07 04:57:36;;;;;;;1.77;1.50;;;;;;;22.00;35.93;97383.13;5037621;28;20191;-71
2024/04/07 05:00:01;;;;;;;3.10;2.10;;;;;;;21.90;36.53;97385.50;5030451;28;20208;-71
2024/04/07 05:02:26;;;;;;;3.50;1.93;;;;;;;21.86;36.55;97393.16;5027977;28;20295;-71
2024/04/07 05:04:52;;;;;;;2.03;1.73;;;;;;;21.78;36.85;97398.78;5034336;28;20214;-71
2024/04/07 05:07:17;;;;;;;2.43;2.23;;;;;;;21.79;36.75;97392.41;5043863;28;20222;-70
2024/04/07 05:09:46;;;;;;;3.23;2.17;;;;;;;21.70;37.24;97399.03;5035443;28;20768;-71
2024/04/07 05:12:11;;;;;;;2.70;1.87;;;;;;;21.70;37.15;97407.03;5025408;28;20207;-70
2024/04/07 05:14:36;;;;;;;4.80;2.07;;;;;;;21.66;37.24;97408.53;5028364;28;21195;-71
2024/04/07 05:17:02;;;;;;;2.53;1.87;;;;;;;21.65;36.94;97418.38;5038195;28;20207;-71
2024/04/07 05:19:27;;;;;;;2.40;2.00;;;;;;;21.58;37.23;97431.72;5033936;28;20203;-70
2024/04/07 05:21:53;;;;;;;1.90;1.80;;;;;;;21.39;37.51;97427.38;5038544;28;20293;-72
2024/04/07 05:24:19;;;;;;;2.50;1.77;;;;;;;21.40;37.57;97429.81;5036737;28;20201;-70
2024/04/07 05:26:44;;;;;;;4.63;1.90;;;;;;;21.21;38.53;97444.91;5040663;28;20236;-71
2024/04/07 05:29:10;;;;;;;6.00;2.10;;;;;;;21.07;38.20;97443.34;5040338;28;20948;-70
2024/04/07 05:31:35;;;;;;;3.70;2.47;;;;;;;21.01;38.45;97445.03;5037039;28;20306;-70
2024/04/07 05:34:00;;;;;;;3.00;2.00;;;;;;;21.15;37.91;97451.09;5028118;28;20188;-70
2024/04/07 05:36:26;;;;;;;4.17;2.00;;;;;;;21.22;38.12;97451.88;5033714;28;20192;-69
2024/04/07 05:38:51;;;;;;;2.10;1.90;;;;;;;21.26;37.93;97458.41;5030449;28;20313;-70
2024/04/07 05:41:17;;;;;;;1.80;1.70;;;;;;;21.26;37.00;97453.09;5024474;28;20688;-70
2024/04/07 05:43:44;;;;;;;2.77;1.90;;;;;;;21.21;37.22;97444.91;5038873;28;20194;-70
2024/04/07 05:46:09;;;;;;;3.37;2.20;;;;;;;21.24;37.89;97454.31;5029108;28;20190;-70
2024/04/07 05:48:35;;;;;;;2.03;1.93;;;;;;;21.28;38.26;97461.69;5020258;28;20450;-71
2024/04/07 05:51:03;;;;;;;4.23;2.07;;;;;;;21.14;38.54;97471.59;5029497;28;20208;-70
2024/04/07 05:53:28;;;;;;;2.00;1.80;;;;;;;21.16;39.03;97482.06;5012480;28;20792;-69
2024/04/07 05:55:54;;;;;;;7.73;2.53;;;;;;;21.09;39.59;97478.59;5029477;28;20438;-70
2024/04/07 05:58:19;;;;;;;3.17;1.77;;;;;;;20.90;39.52;97481.16;5021189;28;20222;-71
2024/04/07 06:00:45;;;;;;;2.13;1.90;;;;;;;20.96;38.77;97477.63;5025050;28;20218;-71
2024/04/07 06:03:10;;;;;;;2.60;2.27;;;;;;;20.98;38.78;97472.91;5020065;28;20180;-70
2024/04/07 06:05:36;;;;;;;2.23;2.03;;;;;;;21.03;38.13;97482.94;5023630;28;20566;-70
2024/04/07 06:08:03;;;;;;;2.37;1.70;;;;;;;21.16;36.80;97490.06;5018024;28;20191;-70
2024/04/07 06:10:28;;;;;;;4.33;1.90;;;;;;;21.31;37.16;97498.56;5020308;28;20427;-72
2024/04/07 06:12:55;;;;;;;4.03;2.27;;;;;;;21.38;38.18;97495.03;5034131;28;20449;-70
2024/04/07 06:15:21;;;;;;;5.33;2.10;;;;;;;21.30;39.45;97498.78;5020787;28;20290;-71
2024/04/07 06:17:47;;;;;;;5.53;1.97;;;;;;;21.41;39.26;97502.63;5021272;28;20437;-71
2024/04/07 06:20:12;;;;;;;4.60;2.20;;;;;;;21.45;39.08;97514.47;5035596;28;20549;-69
2024/04/07 06:22:38;;;;;;;4.13;1.90;;;;;;;21.45;39.21;97503.81;5038738;28;20517;-71
2024/04/07 06:25:04;;;;;;;5.13;2.30;;;;;;;21.53;39.24;97508.06;5042560;28;20240;-70
2024/04/07 06:27:33;;;;;;;3.40;2.20;;;;;;;21.56;39.32;97511.09;5023904;28;20184;-70
2024/04/07 06:30:02;;;;;;;7.57;2.30;;;;;;;21.59;40.04;97516.03;5031836;28;20481;-69
2024/04/07 06:32:28;;;;;;;4.50;2.20;;;;;;;21.57;40.21;97512.75;5031750;28;20465;-69
2024/04/07 06:34:54;;;;;;;4.93;2.00;;;;;;;21.63;39.95;97521.75;5030031;28;20846;-70
2024/04/07 06:37:19;;;;;;;4.20;2.00;;;;;;;21.61;41.54;97518.53;5046552;28;20961;-70
2024/04/07 06:39:45;;;;;;;5.93;2.37;;;;;;;21.49;41.02;97521.00;5041434;28;20198;-70
2024/04/07 06:42:10;;;;;;;2.30;2.10;;;;;;;21.45;42.08;97517.97;5034662;28;20204;-71
2024/04/07 06:44:36;;;;;;;3.53;2.00;;;;;;;21.48;40.38;97522.03;5032688;28;20218;-69
2024/04/07 06:47:03;;;;;;;6.03;2.40;;;;;;;21.59;40.47;97537.38;5046140;28;20187;-69
2024/04/07 06:49:29;;;;;;;7.03;3.30;;;;;;;21.63;40.88;97540.44;5035570;28;20421;-69
2024/04/07 06:51:54;;;;;;;4.50;2.97;;;;;;;21.70;40.77;97543.88;5042247;28;20469;-70
2024/04/07 06:54:20;;;;;;;7.27;2.63;;;;;;;21.66;40.54;97555.19;5027222;28;20955;-72
2024/04/07 06:56:45;;;;;;;4.00;2.60;;;;;;;21.66;40.64;97560.53;5034991;28;20191;-71
2024/04/07 06:59:11;;;;;;;4.40;2.67;;;;;;;21.66;41.29;97572.00;5032889;28;20211;-71
2024/04/07 07:01:36;;;;;;;3.00;2.70;;;;;;;21.83;41.22;97572.28;5037775;28;20214;-71
2024/04/07 07:04:04;;;;;;;3.23;2.10;;;;;;;21.97;41.52;97556.19;5041376;28;20183;-71
2024/04/07 07:06:31;;;;;;;3.73;2.30;;;;;;;21.96;41.65;97558.06;5032716;28;20270;-70
2024/04/07 07:08:56;;;;;;;6.53;2.90;;;;;;;22.14;41.04;97559.13;5031347;28;20427;-71
2024/04/07 07:11:22;;;;;;;3.47;2.70;;;;;;;22.35;38.83;97560.59;5042170;28;20504;-71
2024/04/07 07:13:51;;;;;;;4.73;2.40;;;;;;;22.54;38.63;97569.50;5030721;28;20293;-72
2024/04/07 07:16:17;;;;;;;12.13;2.70;;;;;;;22.69;39.34;97575.31;5035702;28;20195;-71
2024/04/07 07:18:42;;;;;;;5.27;2.80;;;;;;;22.78;41.22;97566.97;5011910;28;20422;-71
2024/04/07 07:21:08;;;;;;;6.07;3.37;;;;;;;22.79;40.14;97568.63;5041220;28;20285;-71
2024/04/07 07:23:35;;;;;;;4.00;2.63;;;;;;;22.91;39.67;97568.72;5037549;28;20183;-71
2024/04/07 07:26:02;;;;;;;5.30;2.90;;;;;;;23.01;39.80;97564.44;5032811;28;20580;-71
2024/04/07 07:28:28;;;;;;;2.70;2.03;;;;;;;23.07;38.51;97573.44;5034775;28;20438;-72
2024/04/07 07:30:54;;;;;;;10.20;2.67;;;;;;;23.06;39.48;97571.00;5046498;28;20422;-72
2024/04/07 07:33:19;;;;;;;4.30;2.80;;;;;;;23.12;40.38;97572.78;5030677;28;20433;-71
2024/04/07 07:35:45;;;;;;;9.63;2.53;;;;;;;23.24;40.43;97576.38;5024385;28;20180;-71
2024/04/07 07:38:10;;;;;;;9.87;2.50;;;;;;;23.34;40.19;97570.47;5033545;28;20180;-71
2024/04/07 07:40:36;;;;;;;6.40;2.80;;;;;;;23.41;38.36;97575.72;5029784;28;20294;-71
2024/04/07 07:43:03;;;;;;;6.10;2.27;;;;;;;23.50;38.14;97584.25;5020803;28;20192;-71
2024/04/07 07:45:29;;;;;;;6.10;2.23;;;;;;;23.63;39.18;97592.09;5038574;28;20222;-72
2024/04/07 07:47:54;;;;;;;5.53;2.40;;;;;;;23.79;38.89;97593.28;5029357;28;20794;-71
2024/04/07 07:50:20;;;;;;;3.73;2.50;;;;;;;24.03;39.41;97596.06;5032516;28;20235;-70
2024/04/07 07:52:45;;;;;;;5.23;2.50;;;;;;;24.17;37.50;97602.84;5040361;28;20179;-71
2024/04/07 07:55:11;;;;;;;4.73;1.97;;;;;;;24.41;37.53;97610.91;4978970;28;20205;-70
2024/04/07 07:57:36;;;;;;;2.30;1.57;;;;;;;24.61;37.13;97607.06;5031411;28;20645;-70
2024/04/07 08:00:05;;;;;;;3.53;1.90;;;;;;;24.73;35.87;97617.81;5025806;28;20223;-71
2024/04/07 08:02:31;;;;;;;4.13;1.70;;;;;;;24.82;35.21;97611.06;5029819;28;20708;-71
2024/04/07 08:04:56;;;;;;;5.73;1.87;;;;;;;24.87;33.70;97615.72;5036667;28;20419;-71
2024/04/07 08:07:22;;;;;;;5.17;2.00;;;;;;;25.02;33.08;97621.38;5010413;28;20424;-72
2024/04/07 08:09:47;;;;;;;3.60;2.00;;;;;;;25.22;33.26;97629.03;5045962;28;20176;-73
2024/04/07 08:12:13;;;;;;;5.33;1.93;;;;;;;25.32;32.20;97633.00;5027793;28;20675;-73
2024/04/07 08:14:38;;;;;;;5.87;2.53;;;;;;;25.35;31.84;97637.88;5029508;28;20681;-71
2024/04/07 08:17:04;;;;;;;4.07;1.50;;;;;;;25.33;30.00;97635.44;5031476;28;20183;-70
2024/04/07 08:19:29;;;;;;;5.50;2.23;;;;;;;25.39;30.12;97649.75;5030250;28;20212;-72
2024/04/07 08:21:55;;;;;;;5.53;1.60;;;;;;;25.42;29.52;97652.00;5031605;28;20266;-71
2024/04/07 08:24:20;;;;;;;5.80;2.50;;;;;;;25.51;29.50;97653.25;5030366;28;20322;-71
2024/04/07 08:26:45;;;;;;;4.47;2.07;;;;;;;25.55;29.01;97654.41;5029893;28;20603;-70
2024/04/07 08:29:11;;;;;;;5.30;2.00;;;;;;;25.60;29.77;97654.50;5034302;28;20206;-71
2024/04/07 08:31:36;;;;;;;6.37;2.20;;;;;;;25.59;29.14;97655.56;5029394;28;20246;-71
2024/04/07 08:34:02;;;;;;;7.03;2.23;;;;;;;25.63;28.49;97655.91;5024948;28;20234;-72
2024/04/07 08:36:27;;;;;;;6.63;1.90;;;;;;;25.66;28.80;97659.97;5024448;28;20191;-70
2024/04/07 08:38:53;;;;;;;5.77;1.73;;;;;;;25.69;28.45;97659.50;5029909;28;20648;-70
2024/04/07 08:41:18;;;;;;;10.30;2.37;;;;;;;25.73;29.15;97649.91;5032719;28;20294;-70
2024/04/07 08:43:47;;;;;;;9.57;2.03;;;;;;;25.73;29.96;97655.28;5035592;28;20620;-71
2024/04/07 08:46:14;;;;;;;13.90;2.40;;;;;;;25.80;30.27;97655.13;5036014;28;20183;-71
2024/04/07 08:48:41;;;;;;;7.27;2.50;;;;;;;25.81;29.35;97660.28;5027759;28;20500;-70
2024/04/07 08:51:10;;;;;;;9.37;2.30;;;;;;;25.78;29.28;97652.69;5036069;28;20969;-72
2024/04/07 08:53:42;;;;;;;5.00;1.80;;;;;;;25.82;29.03;97653.84;5029658;28;20427;-71
2024/04/07 08:56:07;;;;;;;11.37;1.87;;;;;;;25.84;28.54;97651.72;5039792;28;20425;-73
2024/04/07 08:58:35;;;;;;;9.00;1.93;;;;;;;25.93;28.55;97654.84;5014928;28;20422;-71
2024/04/07 09:01:00;;;;;;;4.63;2.23;;;;;;;25.95;28.04;97647.38;5032297;28;20203;-71
2024/04/07 09:03:28;;;;;;;5.83;2.00;;;;;;;26.01;27.50;97659.00;5034794;28;20438;-71
2024/04/07 09:05:54;;;;;;;7.07;2.40;;;;;;;26.16;27.54;97658.47;5035652;28;20175;-71
2024/04/07 09:08:19;;;;;;;14.27;2.40;;;;;;;26.34;27.61;97650.19;5026537;28;20434;-70
2024/04/07 09:10:45;;;;;;;7.87;2.47;;;;;;;26.55;27.14;97657.78;5031224;28;20291;-72
2024/04/07 09:13:10;;;;;;;7.57;2.37;;;;;;;26.96;28.10;97661.91;5027187;28;20272;-72
2024/04/07 09:15:36;;;;;;;6.97;1.70;;;;;;;27.26;26.91;97649.09;5032598;28;20274;-71
2024/04/07 09:18:01;;;;;;;6.50;1.90;;;;;;;27.44;26.55;97635.38;5045960;28;20186;-72
2024/04/07 09:20:27;;;;;;;7.60;2.07;;;;;;;27.56;26.93;97640.63;5034339;28;20208;-71
2024/04/07 09:22:52;;;;;;;7.53;2.63;;;;;;;27.74;27.29;97644.84;5034048;28;20198;-71
2024/04/07 09:25:17;;;;;;;9.57;2.00;;;;;;;27.88;27.55;97650.66;5024755;28;20206;-71
2024/04/07 09:27:43;;;;;;;8.63;1.80;;;;;;;27.95;27.82;97650.44;5017747;28;20223;-72
2024/04/07 09:30:09;;;;;;;5.10;2.07;;;;;;;28.17;28.17;97657.69;5035433;28;20192;-71
2024/04/07 09:32:37;;;;;;;6.00;2.00;;;;;;;28.25;27.94;97662.59;5030511;28;20204;-71
2024/04/07 09:35:03;;;;;;;5.80;1.63;;;;;;;28.26;27.61;97664.22;5027088;28;20179;-70
2024/04/07 09:37:29;;;;;;;12.47;2.00;;;;;;;28.24;27.55;97660.97;5032304;28;20426;-71
2024/04/07 09:39:54;;;;;;;5.90;1.63;;;;;;;28.18;28.11;97648.53;5017953;28;20534;-71
2024/04/07 09:42:21;;;;;;;12.40;2.20;;;;;;;28.08;27.93;97645.72;5028429;28;20297;-71
2024/04/07 09:44:47;;;;;;;8.70;2.13;;;;;;;27.95;28.16;97652.31;5019840;28;20195;-71
2024/04/07 09:47:14;;;;;;;8.70;2.00;;;;;;;27.77;28.68;97656.19;5030069;28;20430;-72
2024/04/07 09:49:43;;;;;;;6.77;1.77;;;;;;;27.71;28.82;97656.13;5032641;28;20425;-71
2024/04/07 09:52:12;;;;;;;17.00;4.87;;;;;;;27.73;28.75;97655.88;5034482;28;20502;-72
2024/04/07 09:54:47;;;;;;;9.50;2.33;;;;;;;27.78;28.49;97644.34;5028201;28;20430;-70
2024/04/07 09:57:16;;;;;;;5.50;1.60;;;;;;;27.94;27.56;97654.22;5026368;28;20438;-71
2024/04/07 09:59:43;;;;;;;10.33;1.93;;;;;;;28.15;27.78;97659.81;5020711;28;20970;-73
2024/04/07 10:02:13;;;;;;;9.13;1.70;;;;;;;28.45;27.39;97659.25;5026907;28;20454;-72
2024/04/07 10:04:39;;;;;;;6.43;2.03;;;;;;;28.81;26.83;97656.03;5031199;28;20492;-70
2024/04/07 10:07:06;;;;;;;10.90;1.90;;;;;;;29.11;25.98;97662.69;5021073;28;20429;-71
2024/04/07 10:09:32;;;;;;;8.87;2.30;;;;;;;29.37;25.59;97657.41;5029635;28;20423;-72
2024/04/07 10:11:57;;;;;;;23.93;2.57;;;;;;;29.69;25.38;97654.56;5027265;28;21166;-73
2024/04/07 10:14:23;;;;;;;4.97;1.73;;;;;;;29.87;25.61;97660.53;5027610;28;20195;-71
2024/04/07 10:16:51;;;;;;;8.47;1.87;;;;;;;30.12;25.57;97662.50;5030568;28;20653;-72
2024/04/07 10:19:18;;;;;;;6.63;1.90;;;;;;;30.47;24.91;97660.91;5020730;28;20199;-72
2024/04/07 10:21:44;;;;;;;7.40;1.90;;;;;;;30.77;24.53;97656.56;5021222;28;20457;-74
2024/04/07 10:24:10;;;;;;;10.30;1.70;;;;;;;30.69;23.30;97665.22;5031391;28;20883;-69
2024/04/07 10:26:36;;;;;;;4.40;1.60;;;;;;;30.53;23.87;97658.19;5028833;28;20454;-72
2024/04/07 10:29:06;;;;;;;7.20;1.70;;;;;;;30.80;24.04;97653.31;5022853;28;20270;-73
2024/04/07 10:31:33;;;;;;;6.83;2.07;;;;;;;31.11;23.88;97649.72;5028759;28;21159;-73
2024/04/07 10:33:59;;;;;;;8.13;2.03;;;;;;;31.30;23.77;97641.81;5019202;28;20843;-72
2024/04/07 10:36:25;;;;;;;8.50;1.80;;;;;;;31.49;23.61;97639.28;5031011;28;20513;-71
2024/04/07 10:38:52;;;;;;;7.20;2.00;;;;;;;31.66;23.36;97635.44;5032247;28;20195;-72
2024/04/07 10:41:28;;;;;;;12.60;2.13;;;;;;;31.87;23.55;97633.44;5034087;28;20463;-70
2024/04/07 10:43:54;;;;;;;14.13;1.97;;;;;;;31.83;22.45;97626.94;5031967;28;20891;-72
2024/04/07 10:46:21;;;;;;;6.97;1.67;;;;;;;31.77;22.77;97618.03;5038172;28;20435;-71
2024/04/07 10:48:47;;;;;;;7.93;1.73;;;;;;;31.71;22.92;97625.41;5011820;28;20428;-71
2024/04/07 10:51:13;;;;;;;5.37;1.77;;;;;;;31.52;23.48;97619.78;5019846;28;20581;-71
2024/04/07 10:53:42;;;;;;;5.37;1.60;;;;;;;31.40;23.51;97620.13;5030822;28;20517;-71
2024/04/07 10:56:08;;;;;;;8.87;2.17;;;;;;;31.45;23.05;97610.34;5032112;28;20184;-72
2024/04/07 10:58:34;;;;;;;8.03;1.50;;;;;;;31.37;23.13;97615.28;5020457;28;20483;-70
2024/04/07 11:01:00;;;;;;;5.70;1.50;;;;;;;31.33;24.40;97608.78;5039873;28;20627;-73
2024/04/07 11:03:26;;;;;;;9.30;2.13;;;;;;;31.36;23.24;97613.66;5020580;28;20427;-71
2024/04/07 11:05:52;;;;;;;5.80;1.90;;;;;;;31.36;23.33;97604.72;5032190;28;20204;-73
2024/04/07 11:08:19;;;;;;;12.90;2.10;;;;;;;31.29;23.51;97602.31;5023349;28;20895;-71
2024/04/07 11:10:50;;;;;;;8.23;3.10;;;;;;;31.37;23.60;97601.75;5036137;28;20449;-72
2024/04/07 11:13:17;;;;;;;31.87;18.00;;;;;;;31.30;23.03;97598.50;5026014;28;20438;-71
2024/04/07 11:15:42;;;;;;;9.17;3.60;;;;;;;31.23;24.16;97600.72;5039209;28;20463;-71
2024/04/07 11:18:26;;;;;;;5.67;1.83;;;;;;;30.88;23.10;97603.25;5029248;28;20455;-71
2024/04/07 11:20:54;;;;;;;6.17;1.93;;;;;;;30.31;23.56;97595.19;5029793;28;20211;-72
2024/04/07 11:23:20;;;;;;;10.60;1.90;;;;;;;30.59;24.23;97586.84;5047020;28;21102;-73
2024/04/07 11:25:47;;;;;;;4.87;1.80;;;;;;;30.72;22.87;97588.97;5038564;28;20519;-72
2024/04/07 11:28:13;;;;;;;10.57;3.33;;;;;;;31.02;24.20;97594.53;5046854;28;20650;-71
2024/04/07 11:30:43;;;;;;;5.20;2.00;;;;;;;31.36;23.55;97592.00;5002795;28;21115;-71